• Join FlightAware (Why Join?)
  • Login
  • US Flag 
09:55AM EDT


 

Airport Tracker/Info


-or-


 

Live Flight TrackerFlight Track Log ✈ RPA4886 ✈ 29-Apr-2013 ✈ KIAD - KPVD

Flight Track Log - Related Links

Times and Time Zones

All times are in EDT time to prevent confusion due to time zone crossing. See the RPA4886 flight status page for this flight to view local times or setup timezone preferences in your user account.

Time Position Orientation Groundspeed Altitude Reporting Facility
EDT Latitude Longitude Course Direction KTS MPH feet Rate Location/Type
05:15PM 38.9500 -77.5167 314° West 197 227 1,600  Level Potomac TRACON
05:16PM 39.0000 -77.5833 314° West 230 265 3,700 2,160 Climbing Potomac TRACON
05:17PM 39.0500 -77.5667 15° North 234 269 6,000 2,040 Climbing Potomac TRACON
05:18PM 39.1000 -77.5000 46° Northeast 244 281 7,800 1,560 Climbing Potomac TRACON
05:19PM 39.1333 -77.4333 57° Northeast 264 304 9,000 840 Climbing Potomac TRACON
05:22PM 39.2400 -77.2264 56° Northeast 288 331 10,700 840 Climbing Washington Center
05:23PM 39.2850 -77.1361 57° Northeast 282 325 12,100 1,380 Climbing Washington Center
05:24PM 39.3297 -77.0486 57° Northeast 287 330 13,600 1,260 Climbing Washington Center
05:25PM 39.3267 -76.9625 93° East 277 319 14,600 960 Climbing Washington Center
05:26PM 39.3133 -76.8469 98° East 277 319 15,600 1,080 Climbing Washington Center
05:27PM 39.2978 -76.7314 100° East 301 346 16,800 1,080 Climbing Washington Center
05:28PM 39.2819 -76.6211 100° East 311 358 17,800 960 Climbing Washington Center
05:29PM 39.2706 -76.5058 97° East 316 364 18,800 840 Climbing Washington Center
05:30PM 39.2547 -76.3931 100° East 316 364 19,600 840 Climbing Washington Center
05:31PM 39.2386 -76.2775 100° East 316 364 20,500 900 Climbing Washington Center
05:32PM 39.2308 -76.1650 95° East 316 364 21,500 900 Climbing Washington Center
05:33PM 39.2147 -76.0497 100° East 316 364 22,400 720 Climbing Washington Center
05:34PM 39.1983 -75.9344 100° East 316 364 23,000 480 Climbing Washington Center
05:35PM 39.2319 -75.8300 67° East 302 348 23,400 600 Climbing Washington Center
05:36PM 39.2947 -75.7497 45° Northeast 298 343 24,300 720 Climbing Washington Center
05:37PM 39.3550 -75.6694 46° Northeast 305 351 24,900 300 Climbing Washington Center
05:38PM 39.4219 -75.5836 45° Northeast 310 357 25,000  Climbing Washington Center
05:39PM 39.4906 -75.4947 45° Northeast 329 379 25,000  Level Washington Center
05:40PM 39.5592 -75.4058 45° Northeast 334 384 25,000  Level Washington Center
05:41PM 39.6300 -75.3114 46° Northeast 341 392 25,000  Level Washington Center
05:41PM 39.6583 -75.2769 43° Northeast 368 423 25,000  Level New York Center
05:42PM 39.7267 -75.1814 47° Northeast 382 440 25,000  Level New York Center
05:43PM 39.7931 -75.0800 50° Northeast 372 428 25,000  Level New York Center
05:44PM 39.8611 -74.9842 47° Northeast 367 422 25,000  Level New York Center
05:45PM 39.9292 -74.8856 48° Northeast 367 422 25,000  Level New York Center
05:46PM 39.9992 -74.7894 46° Northeast 367 422 25,000  Level New York Center
05:47PM 40.0697 -74.6769 51° Northeast 361 415 25,000  Level New York Center
05:48PM 40.1086 -74.5678 65° Northeast 361 415 25,000  Level New York Center
05:51PM 40.2161 -74.2769 64° Northeast 364 419 25,000  Level Boston Center
05:52PM 40.2617 -74.1531 64° Northeast 364 419 25,000  Level Boston Center
05:53PM 40.3053 -74.0292 65° Northeast 369 425 25,000  Level Boston Center
05:54PM 40.3547 -73.9078 62° Northeast 369 425 25,000  Level Boston Center
05:55PM 40.4003 -73.7808 65° Northeast 369 425 25,000  Level Boston Center
05:56PM 40.4433 -73.6508 66° East 377 434 25,000  Level Boston Center
05:57PM 40.4906 -73.5261 64° Northeast 382 440 25,000 -240 Level Boston Center
05:58PM 40.5353 -73.3986 65° Northeast 382 440 24,600 -720 Descending Boston Center
05:59PM 40.5800 -73.2708 65° Northeast 382 440 23,600 -1,020 Descending Boston Center
06:00PM 40.6206 -73.1508 66° East 370 426 22,600 -1,020 Descending Boston Center
06:01PM 40.6608 -73.0364 65° Northeast 355 409 21,600 -1,020 Descending Boston Center
06:02PM 40.7031 -72.9247 63° Northeast 342 394 20,600 -1,020 Descending Boston Center
06:03PM 40.7492 -72.8128 61° Northeast 337 388 19,600 -1,020 Descending Boston Center
06:04PM 40.7914 -72.6922 65° Northeast 343 395 18,600 -960 Descending Boston Center
06:05PM 40.8331 -72.5525 68° East 358 412 17,700 -1,200 Descending Boston Center
06:06PM 40.8769 -72.4292 65° Northeast 358 412 16,300 -1,320 Descending Boston Center
06:07PM 40.9186 -72.3136 64° Northeast 358 412 15,100 -1,260 Descending Boston Center
06:07PM 40.9497 -72.2286 64° Northeast 358 412 14,100 -1,260 Descending Boston Center
06:08PM 40.9931 -72.1047 65° Northeast 333 383 12,800 -1,020 Descending Boston Center
06:09PM 40.9972 -72.0825 76° East 342 394 12,700 -1,200 Descending Boston Center
06:10PM 41.0386 -71.9669 65° Northeast 327 376 11,400 -1,260 Descending Boston Center
06:11PM 41.0736 -71.8811 62° Northeast 314 361 10,500 -780 Descending Boston Center
06:12PM 41.1378 -71.7925 46° Northeast 310 357 10,000 -240 Descending Boston Center
06:13PM 41.1933 -71.6925 54° Northeast 311 358 10,000 -300 Level Boston Center
06:14PM 41.2469 -71.6119 48° Northeast 296 341 9,400 -900 Descending Boston Center
06:15PM 41.2964 -71.5339 50° Northeast 270 311 8,200 -1,560 Descending Boston Center
06:16PM 41.3711 -71.5133 12° North 263 303 6,300 -1,560 Descending Boston Center
06:17PM 41.4439 -71.4958 10° North 264 304 5,100 -660 Descending Boston Center
06:18PM 41.5125 -71.4753 13° North 260 299 5,000 -60 Descending Boston Center
06:19PM 41.5747 -71.4383 24° Northeast 256 295 5,000  Level Boston Center
06:20PM 41.6328 -71.3958 29° Northeast 232 267 5,000  Level Boston Center
06:21PM 41.6928 -71.3503 30° Northeast 232 267 5,000 -1,020 Level Boston Center
06:22PM 41.7528 -71.3103 26° Northeast 242 278 3,000 -1,560 Descending Boston Center
06:23PM 41.7992 -71.3458 330° Northwest 216 249 1,900 -960 Descending Boston Center
06:24PM 41.7703 -71.3881 227° Southwest 165 190 1,100 -780 Descending Boston Center
06:25PM 41.7392 -71.4164 214° Southwest 132 152 400 -720 Descending Boston Center